Weather reports worldwide

Advertisment
Torino Venaria, Italy (16060): temperature & dewpoint: 17.04.2018 01:00:00 - 23.04.2018 01:00:00 (CEST)Torino Venaria, Italy (16060): wind speed: 17.04.2018 01:00:00 - 23.04.2018 01:00:00 (CEST)Torino Venaria, Italy (16060): wind direction: 17.04.2018 01:00:00 - 23.04.2018 01:00:00 (CEST)Torino Venaria, Italy (16060): reduced air pressure: 17.04.2018 01:00:00 - 23.04.2018 01:00:00 (CEST)Torino Venaria, Italy (16060): precipitation: 17.04.2018 01:00:00 - 23.04.2018 01:00:00 (CEST)
Date & Time tt [°C] td [°C] ff [km/h] ff [kn] dd ppp [hPa] rr [mm]
23.04.2018 01:00:00 12,2 8,4 2 1 W 1015,4 -
23.04.2018 00:00:00 13,5 9,1 4 2 WNW 1015,2 -
22.04.2018 23:00:00 14,9 8,8 2 1 NW 1014,9 -
22.04.2018 22:00:00 15,5 9,1 4 2 WNW 1014,2 -
22.04.2018 21:00:00 20,5 10,3 4 2 N 1013,1 -
22.04.2018 20:00:00 24,4 9,5 2 1 N 1012,2 0,0
22.04.2018 19:00:00 26,0 11,3 2 1 WNW 1011,8 -
22.04.2018 18:00:00 25,8 12,6 5 3 W 1011,9 -
22.04.2018 17:00:00 25,8 11,5 5 3 WSW 1012,1 -
22.04.2018 16:00:00 25,8 13,9 4 2 SE 1012,6 -
22.04.2018 15:00:00 25,3 12,5 4 2 E 1013,5 -
22.04.2018 14:00:00 23,7 11,4 8 4 ENE 1014,2 0,0
22.04.2018 13:00:00 22,7 12,0 8 4 ESE 1015,0 -
22.04.2018 12:00:00 21,2 11,2 5 3 ENE 1015,8 -
22.04.2018 11:00:00 19,9 10,8 5 3 ENE 1016,2 -
22.04.2018 10:00:00 18,6 11,1 4 2 E 1016,3 -
22.04.2018 09:00:00 13,8 13,3 2 1 WNW 1016,7 -
22.04.2018 08:00:00 8,8 8,5 2 1 WNW 1017,3 0,0
22.04.2018 07:00:00 7,2 4,8 4 2 WNW 1017,0 -
22.04.2018 06:00:00 7,7 4,8 5 3 WNW 1016,6 -
22.04.2018 05:00:00 8,3 4,5 4 2 NW 1016,7 -
22.04.2018 04:00:00 8,5 5,0 4 2 NW 1016,7 -
22.04.2018 03:00:00 9,0 5,5 5 3 WNW 1016,9 -
22.04.2018 02:00:00 10,0 5,5 4 2 WNW 1016,9 0,0
22.04.2018 01:00:00 10,7 5,8 5 3 WNW 1016,6 -
22.04.2018 00:00:00 12,1 5,7 2 1 NNW 1016,1 -
21.04.2018 23:00:00 13,6 6,1 4 2 NW 1015,9 -
21.04.2018 22:00:00 16,1 7,5 5 3 WNW 1015,5 -
21.04.2018 21:00:00 19,0 8,0 0 0 N 1014,7 -
21.04.2018 20:00:00 22,4 8,1 4 2 S 1013,9 0,0
21.04.2018 19:00:00 23,9 10,9 11 6 SSW 1014,0 -
21.04.2018 18:00:00 25,3 9,1 13 7 SW 1014,1 -
21.04.2018 17:00:00 26,1 10,3 11 6 SW 1014,3 -
21.04.2018 16:00:00 26,2 10,3 9 5 S 1015,0 -
21.04.2018 15:00:00 26,4 9,7 5 3 NE 1015,8 -
21.04.2018 14:00:00 25,8 10,4 5 3 W 1016,3 0,0
21.04.2018 13:00:00 25,2 11,3 4 2 WSW 1017,2 -
21.04.2018 12:00:00 23,3 9,6 4 2 SSW 1018,1 -
21.04.2018 11:00:00 21,4 10,2 4 2 WSW 1018,6 -
21.04.2018 10:00:00 18,0 10,6 2 1 W 1018,9 -
21.04.2018 09:00:00 13,1 9,3 2 1 WNW 1019,6 -
21.04.2018 08:00:00 8,1 6,5 4 2 WNW 1020,3 0,0
21.04.2018 07:00:00 7,1 3,5 4 2 NW 1020,1 -
21.04.2018 06:00:00 7,2 3,9 2 1 WNW 1019,8 -
21.04.2018 05:00:00 8,1 4,6 8 4 WNW 1019,8 -
21.04.2018 04:00:00 7,7 4,2 4 2 W 1020,1 -
21.04.2018 03:00:00 7,9 4,4 4 2 WNW 1020,3 -
21.04.2018 02:00:00 9,1 5,6 2 1 W 1020,3 0,0
21.04.2018 01:00:00 10,5 5,8 0 0 N 1020,2 -
21.04.2018 00:00:00 11,0 5,3 2 1 NW 1020,3 -
20.04.2018 23:00:00 13,0 6,7 5 3 WNW 1020,2 -
20.04.2018 22:00:00 14,9 7,1 5 3 WNW 1020,1 -
20.04.2018 21:00:00 17,5 6,9 5 3 WNW 1019,5 -
20.04.2018 20:00:00 23,9 6,2 4 2 NE 1018,6 0,0
20.04.2018 19:00:00 24,7 6,9 5 3 E 1018,7 -
20.04.2018 18:00:00 25,2 5,4 5 3 NE 1018,9 -
20.04.2018 17:00:00 25,5 6,6 4 2 E 1019,3 -
20.04.2018 16:00:00 25,0 7,6 8 4 NE 1020,0 -
20.04.2018 15:00:00 24,6 6,8 8 4 E 1021,1 -
20.04.2018 14:00:00 24,2 8,9 4 2 SSW 1021,7 0,0
20.04.2018 13:00:00 23,2 11,5 5 3 WSW 1022,5 -
20.04.2018 12:00:00 21,6 11,0 5 3 S 1023,0 -
20.04.2018 11:00:00 20,1 11,0 2 1 NW 1023,2 -
20.04.2018 10:00:00 17,0 11,7 0 0 N 1023,4 -
20.04.2018 09:00:00 12,0 12,0 2 1 WSW 1024,0 -
20.04.2018 08:00:00 8,1 8,1 4 2 WNW 1024,5 0,0
20.04.2018 07:00:00 6,7 6,6 2 1 W 1024,5 -
20.04.2018 06:00:00 6,9 5,5 4 2 NW 1024,3 -
20.04.2018 05:00:00 8,0 7,4 0 0 N 1024,2 -
20.04.2018 04:00:00 8,5 7,1 2 1 NNW 1024,3 -
20.04.2018 03:00:00 9,1 6,9 4 2 NW 1024,7 -
20.04.2018 02:00:00 10,0 7,0 4 2 NW 1025,1 0,0
20.04.2018 01:00:00 10,9 7,7 4 2 WNW 1025,1 -
20.04.2018 00:00:00 12,1 7,8 4 2 WNW 1025,2 -
19.04.2018 23:00:00 13,0 7,8 0 0 N 1025,2 -
19.04.2018 22:00:00 15,7 8,1 5 3 WNW 1024,4 -
19.04.2018 21:00:00 19,6 9,4 4 2 NNW 1023,6 -
19.04.2018 20:00:00 22,0 9,5 4 2 E 1022,9 0,0
19.04.2018 19:00:00 23,5 11,8 4 2 WSW 1022,5 -
19.04.2018 18:00:00 23,7 10,0 8 4 SW 1022,7 -
19.04.2018 17:00:00 23,8 8,2 8 4 NE 1022,9 -
19.04.2018 16:00:00 24,3 9,4 4 2 NW 1023,3 -
19.04.2018 15:00:00 23,8 9,3 5 3 W 1024,1 -
19.04.2018 14:00:00 23,0 8,6 4 2 W 1024,9 0,0
19.04.2018 13:00:00 22,3 8,4 4 2 WSW 1025,7 -
19.04.2018 12:00:00 20,6 9,1 4 2 E 1026,6 -
19.04.2018 11:00:00 19,1 9,8 2 1 NNW 1026,8 -
19.04.2018 10:00:00 16,0 10,9 0 0 N 1027,0 -
19.04.2018 09:00:00 11,3 11,3 2 1 NW 1027,4 -
19.04.2018 08:00:00 7,1 7,1 4 2 NW 1027,9 0,0
19.04.2018 07:00:00 5,9 5,6 2 1 WNW 1027,7 -
19.04.2018 06:00:00 6,3 5,7 4 2 NW 1027,6 -
19.04.2018 05:00:00 6,7 5,2 4 2 NW 1027,7 -
19.04.2018 04:00:00 7,1 4,4 2 1 WNW 1027,7 -
19.04.2018 03:00:00 9,0 5,5 4 2 WNW 1027,7 -
19.04.2018 02:00:00 10,2 6,9 4 2 W 1027,8 0,0
19.04.2018 01:00:00 10,7 7,2 5 3 NW 1027,8 -
19.04.2018 00:00:00 10,9 6,8 2 1 NW 1027,5 -
18.04.2018 23:00:00 12,9 7,9 4 2 NW 1026,9 -
18.04.2018 22:00:00 15,5 8,2 4 2 W 1026,3 -
18.04.2018 21:00:00 16,2 6,0 4 2 WNW 1025,3 -
18.04.2018 20:00:00 21,6 7,0 4 2 E 1024,5 0,0
18.04.2018 19:00:00 22,6 9,0 8 4 E 1024,2 -
18.04.2018 18:00:00 22,8 8,8 9 5 ENE 1024,2 -
18.04.2018 17:00:00 23,4 11,1 5 3 ENE 1024,2 -
18.04.2018 16:00:00 23,2 9,9 5 3 E 1024,7 -
18.04.2018 15:00:00 22,7 11,7 4 2 WSW 1025,2 -
18.04.2018 14:00:00 22,0 12,5 8 4 WSW 1025,1 0,0
18.04.2018 13:00:00 21,6 10,7 5 3 SE 1025,5 -
18.04.2018 12:00:00 21,0 11,0 2 1 SSW 1025,8 -
18.04.2018 11:00:00 19,3 11,0 8 4 ESE 1026,1 -
18.04.2018 10:00:00 17,0 11,4 2 1 W 1026,2 -
18.04.2018 09:00:00 13,3 13,2 2 1 WNW 1026,3 -
18.04.2018 08:00:00 11,4 11,2 4 2 NW 1026,2 0,0
18.04.2018 07:00:00 10,5 9,6 2 1 NW 1025,8 -
18.04.2018 06:00:00 10,5 10,2 2 1 NNW 1025,4 -
18.04.2018 05:00:00 9,6 8,7 2 1 W 1025,2 -
18.04.2018 04:00:00 9,6 8,3 0 0 N 1025,0 -
18.04.2018 03:00:00 9,9 7,8 2 1 WNW 1024,9 -
18.04.2018 02:00:00 10,0 6,5 5 3 WNW 1025,1 0,0
18.04.2018 01:00:00 12,0 8,2 4 2 WNW 1024,4 -
18.04.2018 00:00:00 12,4 8,6 4 2 W 1023,3 -
17.04.2018 23:00:00 12,9 8,1 2 1 WNW 1022,6 -
17.04.2018 22:00:00 15,4 8,8 4 2 WNW 1021,6 -
17.04.2018 21:00:00 18,1 9,1 0 0 N 1020,3 -
17.04.2018 20:00:00 21,6 11,0 4 2 NW 1019,0 0,0
17.04.2018 19:00:00 23,1 9,4 8 4 N 1018,1 -
17.04.2018 18:00:00 23,0 9,0 5 3 ENE 1018,0 -
17.04.2018 17:00:00 23,6 10,2 8 4 E 1017,9 -
17.04.2018 16:00:00 23,0 8,6 9 5 ENE 1018,0 -
17.04.2018 15:00:00 23,1 10,8 8 4 E 1018,1 -
17.04.2018 14:00:00 22,1 8,5 8 4 E 1018,4 0,0
17.04.2018 13:00:00 21,1 9,0 9 5 ESE 1018,7 -
17.04.2018 12:00:00 19,9 8,2 8 4 ENE 1019,1 -
17.04.2018 11:00:00 18,9 8,5 8 4 E 1019,1 -
17.04.2018 10:00:00 17,0 9,4 2 1 SSE 1018,9 -
17.04.2018 09:00:00 12,9 12,4 2 1 WNW 1018,6 -
17.04.2018 08:00:00 7,7 7,6 4 2 WNW 1018,4 0,0
17.04.2018 07:00:00 6,2 5,1 4 2 WNW 1017,7 -
17.04.2018 06:00:00 6,9 5,7 4 2 WNW 1016,9 -
17.04.2018 05:00:00 7,2 5,5 0 0 N 1016,2 -
17.04.2018 04:00:00 7,2 4,1 4 2 WNW 1015,5 -
17.04.2018 03:00:00 7,9 4,8 4 2 WNW 1015,2 -
17.04.2018 02:00:00 8,5 5,9 8 4 WNW 1014,7 0,0
17.04.2018 01:00:00 9,1 5,2 0 0 N 1014,1 -

tt = temperature
td = dewpoint
ff = wind speed
dd = wind direction
ppp = reduced air pressure
rr = precipitation

Next stations